createdAt,value
2018-07-17T00:00:14.269Z,951.97
2018-07-17T00:01:14.262Z,951.92
2018-07-17T00:02:14.262Z,951.92
2018-07-17T00:03:14.250Z,951.9
2018-07-17T00:04:14.245Z,951.91
2018-07-17T00:05:14.238Z,951.84
2018-07-17T00:06:14.232Z,951.82
2018-07-17T00:07:14.256Z,951.83
2018-07-17T00:08:14.249Z,951.86
2018-07-17T00:09:14.262Z,951.85
2018-07-17T00:10:14.260Z,951.81
2018-07-17T00:11:14.236Z,951.8
2018-07-17T00:12:14.211Z,951.82
2018-07-17T00:13:14.188Z,951.87
2018-07-17T00:14:14.182Z,951.83
2018-07-17T00:15:14.176Z,951.86
2018-07-17T00:16:14.170Z,951.88
2018-07-17T00:17:14.162Z,951.83
2018-07-17T00:18:14.156Z,951.82
2018-07-17T00:19:14.151Z,951.82
2018-07-17T00:20:14.143Z,951.85
2018-07-17T00:21:14.137Z,951.82
2018-07-17T00:22:14.131Z,951.85
2018-07-17T00:23:14.125Z,951.86
2018-07-17T00:24:14.125Z,951.88
2018-07-17T00:25:14.113Z,951.89
2018-07-17T00:26:14.106Z,951.9
2018-07-17T00:27:14.102Z,951.9
2018-07-17T00:28:14.097Z,951.87
2018-07-17T00:29:14.090Z,951.88
2018-07-17T00:30:14.080Z,951.87
2018-07-17T00:31:14.073Z,951.9
2018-07-17T00:32:14.067Z,951.86
2018-07-17T00:33:14.061Z,951.87
2018-07-17T00:34:14.055Z,951.89
2018-07-17T00:35:14.049Z,951.91
2018-07-17T00:36:14.042Z,951.87
2018-07-17T00:37:14.035Z,951.88
2018-07-17T00:38:14.028Z,951.87
2018-07-17T00:39:14.022Z,951.86
2018-07-17T00:40:14.016Z,951.86
2018-07-17T00:41:14.009Z,951.86
2018-07-17T00:42:14.002Z,951.83
2018-07-17T00:43:13.995Z,951.83
2018-07-17T00:44:13.989Z,951.87
2018-07-17T00:45:13.985Z,951.88
2018-07-17T00:46:13.977Z,951.89
2018-07-17T00:47:13.972Z,951.87
2018-07-17T00:48:13.964Z,951.9
2018-07-17T00:49:13.957Z,951.9
2018-07-17T00:50:13.954Z,951.91
2018-07-17T00:51:13.944Z,951.91
2018-07-17T00:52:13.941Z,951.92
2018-07-17T00:53:13.930Z,951.92
2018-07-17T00:54:13.929Z,951.91
2018-07-17T00:55:13.921Z,951.9
2018-07-17T00:56:13.912Z,951.92
2018-07-17T00:57:13.904Z,951.92
2018-07-17T00:58:13.898Z,951.93
2018-07-17T00:59:13.893Z,951.93
2018-07-17T01:00:13.886Z,951.94
2018-07-17T01:01:13.908Z,951.9
2018-07-17T01:02:13.873Z,951.86
2018-07-17T01:03:13.866Z,951.88
2018-07-17T01:04:13.859Z,951.84
2018-07-17T01:05:13.852Z,951.89
2018-07-17T01:06:13.847Z,951.91
2018-07-17T01:07:13.840Z,951.93
2018-07-17T01:08:13.832Z,951.96
2018-07-17T01:09:13.826Z,951.96
2018-07-17T01:10:13.820Z,951.97
2018-07-17T01:11:13.814Z,951.91
2018-07-17T01:12:13.807Z,951.98
2018-07-17T01:13:13.801Z,951.93
2018-07-17T01:14:13.795Z,951.88
2018-07-17T01:15:13.788Z,951.92
2018-07-17T01:16:13.781Z,951.93
2018-07-17T01:17:13.775Z,951.94
2018-07-17T01:18:13.768Z,951.93
2018-07-17T01:19:13.763Z,951.93
2018-07-17T01:20:13.754Z,951.91
2018-07-17T01:21:13.748Z,951.94
2018-07-17T01:22:13.740Z,951.92
2018-07-17T01:23:13.740Z,951.93
2018-07-17T01:24:13.727Z,951.93
2018-07-17T01:25:13.723Z,951.98
2018-07-17T01:26:13.714Z,951.95
2018-07-17T01:27:13.707Z,951.98
2018-07-17T01:28:13.700Z,951.95
2018-07-17T01:29:13.695Z,951.93
2018-07-17T01:30:13.687Z,951.94
2018-07-17T01:31:13.681Z,951.96
2018-07-17T01:32:13.679Z,951.89
2018-07-17T01:33:13.670Z,951.91
2018-07-17T01:34:13.659Z,951.88
2018-07-17T01:35:13.653Z,951.9
2018-07-17T01:36:13.647Z,951.88
2018-07-17T01:37:13.640Z,951.86
2018-07-17T01:38:13.633Z,951.86
2018-07-17T01:39:13.626Z,951.84
2018-07-17T01:40:13.622Z,951.84
2018-07-17T01:41:13.611Z,951.83
2018-07-17T01:42:13.616Z,951.77
2018-07-17T01:43:13.601Z,951.82
2018-07-17T01:44:13.592Z,951.83
2018-07-17T01:45:13.585Z,951.8
2018-07-17T01:46:13.578Z,951.73
2018-07-17T01:47:13.572Z,951.72
2018-07-17T01:48:13.565Z,951.72
2018-07-17T01:49:13.558Z,951.69
2018-07-17T01:50:13.551Z,951.67
2018-07-17T01:51:13.544Z,951.68
2018-07-17T01:52:13.536Z,951.7
2018-07-17T01:53:13.530Z,951.7
2018-07-17T01:54:13.524Z,951.66
2018-07-17T01:55:13.516Z,951.66
2018-07-17T01:56:13.509Z,951.65
2018-07-17T01:57:13.503Z,951.72
2018-07-17T01:58:13.496Z,951.74
2018-07-17T01:59:13.488Z,951.73
2018-07-17T02:00:13.481Z,951.73
2018-07-17T02:01:13.476Z,951.73
2018-07-17T02:02:13.468Z,951.78
2018-07-17T02:03:13.461Z,951.77
2018-07-17T02:04:13.454Z,951.73
2018-07-17T02:05:13.447Z,951.76
2018-07-17T02:06:13.439Z,951.77
2018-07-17T02:07:13.433Z,951.76
2018-07-17T02:08:13.426Z,951.75
2018-07-17T02:09:13.419Z,951.75
2018-07-17T02:10:13.412Z,951.75
2018-07-17T02:11:13.404Z,951.7
2018-07-17T02:12:13.398Z,951.69
2018-07-17T02:13:13.391Z,951.71
2018-07-17T02:14:13.383Z,951.7
2018-07-17T02:15:13.376Z,951.7
2018-07-17T02:16:13.373Z,951.67
2018-07-17T02:17:13.362Z,951.65
2018-07-17T02:18:13.354Z,951.68
2018-07-17T02:19:13.348Z,951.66
2018-07-17T02:20:13.342Z,951.68
2018-07-17T02:21:13.334Z,951.68
2018-07-17T02:22:13.346Z,951.66
2018-07-17T02:23:13.320Z,951.64
2018-07-17T02:24:13.314Z,951.66
2018-07-17T02:25:13.306Z,951.62
2018-07-17T02:26:13.299Z,951.65
2018-07-17T02:27:13.292Z,951.63
2018-07-17T02:28:13.284Z,951.63
2018-07-17T02:29:13.277Z,951.63
2018-07-17T02:30:13.271Z,951.66
2018-07-17T02:31:13.266Z,951.65
2018-07-17T02:32:13.256Z,951.64
2018-07-17T02:33:13.253Z,951.62
2018-07-17T02:34:13.242Z,951.66
2018-07-17T02:35:13.237Z,951.62
2018-07-17T02:36:13.228Z,951.66
2018-07-17T02:37:13.221Z,951.61
2018-07-17T02:38:13.215Z,951.63
2018-07-17T02:39:13.206Z,951.63
2018-07-17T02:40:13.199Z,951.63
2018-07-17T02:41:13.196Z,951.62
2018-07-17T02:42:13.219Z,951.65
2018-07-17T02:43:13.177Z,951.65
2018-07-17T02:44:13.171Z,951.67
2018-07-17T02:45:13.166Z,951.69
2018-07-17T02:46:13.157Z,951.64
2018-07-17T02:47:13.149Z,951.67
2018-07-17T02:48:13.143Z,951.69
2018-07-17T02:49:13.135Z,951.72
2018-07-17T02:50:13.128Z,951.7
2018-07-17T02:51:13.122Z,951.72
2018-07-17T02:52:13.114Z,951.71
2018-07-17T02:53:13.108Z,951.7
2018-07-17T02:54:13.101Z,951.72
2018-07-17T02:55:13.092Z,951.72
2018-07-17T02:56:13.086Z,951.69
2018-07-17T02:57:13.080Z,951.72
2018-07-17T02:58:13.071Z,951.74
2018-07-17T02:59:13.064Z,951.77
2018-07-17T03:00:13.058Z,951.72
2018-07-17T03:01:13.049Z,951.73
2018-07-17T03:02:13.042Z,951.75
2018-07-17T03:03:13.035Z,951.77
2018-07-17T03:04:13.029Z,951.8
2018-07-17T03:05:13.020Z,951.77
2018-07-17T03:06:13.013Z,951.77
2018-07-17T03:07:13.065Z,951.77
2018-07-17T03:08:13.006Z,951.75
2018-07-17T03:09:12.991Z,951.79
2018-07-17T03:10:12.985Z,951.79
2018-07-17T03:11:12.978Z,951.79
2018-07-17T03:12:12.972Z,951.81
2018-07-17T03:13:12.964Z,951.82
2018-07-17T03:14:12.956Z,951.82
2018-07-17T03:15:12.952Z,951.84
2018-07-17T03:16:12.945Z,951.85
2018-07-17T03:17:12.936Z,951.86
2018-07-17T03:18:12.928Z,951.84
2018-07-17T03:19:12.920Z,951.83
2018-07-17T03:20:12.914Z,951.82
2018-07-17T03:21:12.905Z,951.85
2018-07-17T03:22:12.899Z,951.82
2018-07-17T03:23:12.895Z,951.84
2018-07-17T03:24:12.884Z,951.85
2018-07-17T03:25:12.878Z,951.84
2018-07-17T03:26:12.870Z,951.87
2018-07-17T03:27:12.861Z,951.86
2018-07-17T03:28:12.858Z,951.8
2018-07-17T03:29:12.848Z,951.83
2018-07-17T03:30:12.845Z,951.85
2018-07-17T03:31:12.834Z,951.85
2018-07-17T03:32:12.826Z,951.86
2018-07-17T03:33:12.819Z,951.87
2018-07-17T03:34:12.812Z,951.86
2018-07-17T03:35:12.805Z,951.86
2018-07-17T03:36:12.800Z,951.86
2018-07-17T03:37:12.792Z,951.84
2018-07-17T03:38:12.782Z,951.85
2018-07-17T03:39:12.776Z,951.89
2018-07-17T03:40:12.769Z,951.87
2018-07-17T03:41:12.760Z,951.85
2018-07-17T03:42:12.753Z,951.87
2018-07-17T03:43:12.747Z,951.88
2018-07-17T03:44:12.740Z,951.9
2018-07-17T03:45:12.732Z,951.86
2018-07-17T03:46:12.729Z,951.89
2018-07-17T03:47:12.718Z,951.9
2018-07-17T03:48:12.711Z,951.91
2018-07-17T03:49:12.706Z,951.92
2018-07-17T03:50:12.696Z,951.9
2018-07-17T03:51:12.689Z,951.94
2018-07-17T03:52:12.681Z,951.9
2018-07-17T03:53:12.674Z,951.97
2018-07-17T03:54:12.667Z,952
2018-07-17T03:55:12.660Z,951.97
2018-07-17T03:56:12.653Z,952.01
2018-07-17T03:57:12.646Z,952.03
2018-07-17T03:58:12.638Z,951.99
2018-07-17T03:59:12.632Z,951.97
2018-07-17T04:00:12.623Z,951.96
2018-07-17T04:01:12.616Z,951.95
2018-07-17T04:02:12.610Z,951.97
2018-07-17T04:03:12.603Z,951.95
2018-07-17T04:04:12.648Z,951.94
2018-07-17T04:05:12.591Z,951.96
2018-07-17T04:06:12.581Z,951.97
2018-07-17T04:07:12.624Z,952.01
2018-07-17T04:08:12.567Z,951.99
2018-07-17T04:09:12.560Z,952.02
2018-07-17T04:10:12.553Z,952.01
2018-07-17T04:11:12.545Z,952.03
2018-07-17T04:12:12.538Z,952.01
2018-07-17T04:13:12.532Z,952
2018-07-17T04:14:12.523Z,952.04
2018-07-17T04:15:12.516Z,952.05
2018-07-17T04:16:12.510Z,952.03
2018-07-17T04:17:12.502Z,952.05
2018-07-17T04:18:12.495Z,952.09
2018-07-17T04:19:12.488Z,952.06
2018-07-17T04:20:12.482Z,952.11
2018-07-17T04:21:12.475Z,952.1
2018-07-17T04:22:12.468Z,952.08
2018-07-17T04:23:12.461Z,952.08
2018-07-17T04:24:12.454Z,952.05
2018-07-17T04:25:12.447Z,952.03
2018-07-17T04:26:12.439Z,952.05
2018-07-17T04:27:12.432Z,952.06
2018-07-17T04:28:12.430Z,952.12
2018-07-17T04:29:12.420Z,952.1
2018-07-17T04:30:12.412Z,952.13
2018-07-17T04:31:12.405Z,952.18
2018-07-17T04:32:12.398Z,952.2
2018-07-17T04:33:12.394Z,952.25
2018-07-17T04:34:12.385Z,952.23
2018-07-17T04:35:12.379Z,952.21
2018-07-17T04:36:12.370Z,952.21
2018-07-17T04:37:12.363Z,952.25
2018-07-17T04:38:12.360Z,952.26
2018-07-17T04:39:12.350Z,952.25
2018-07-17T04:40:12.343Z,952.28
2018-07-17T04:41:12.337Z,952.27
2018-07-17T04:42:12.331Z,952.31
2018-07-17T04:43:12.323Z,952.29
2018-07-17T04:44:12.340Z,952.27
2018-07-17T04:45:12.310Z,952.26
2018-07-17T04:46:12.308Z,952.25
2018-07-17T04:47:12.297Z,952.27
2018-07-17T04:48:12.291Z,952.23
2018-07-17T04:49:12.284Z,952.22
2018-07-17T04:50:12.279Z,952.26
2018-07-17T04:51:12.271Z,952.23
2018-07-17T04:52:12.265Z,952.24
2018-07-17T04:53:12.258Z,952.27
2018-07-17T04:54:12.255Z,952.29
2018-07-17T04:55:12.246Z,952.25
2018-07-17T04:56:12.240Z,952.22
2018-07-17T04:57:12.234Z,952.22
2018-07-17T04:58:12.227Z,952.22
2018-07-17T04:59:12.221Z,952.28
2018-07-17T05:00:12.215Z,952.26
2018-07-17T05:01:12.209Z,952.26
2018-07-17T05:02:12.202Z,952.27
2018-07-17T05:03:12.201Z,952.28
2018-07-17T05:04:12.190Z,952.32
2018-07-17T05:05:12.184Z,952.33
2018-07-17T05:06:12.179Z,952.37
2018-07-17T05:07:12.173Z,952.37
2018-07-17T05:08:12.167Z,952.36
2018-07-17T05:09:12.160Z,952.38
2018-07-17T05:10:12.154Z,952.37
2018-07-17T05:11:12.148Z,952.4
2018-07-17T05:12:12.144Z,952.39
2018-07-17T05:13:12.142Z,952.4
2018-07-17T05:14:12.131Z,952.39
2018-07-17T05:15:12.126Z,952.36
2018-07-17T05:16:12.119Z,952.34
2018-07-17T05:17:12.114Z,952.37
2018-07-17T05:18:12.109Z,952.39
2018-07-17T05:19:12.104Z,952.41
2018-07-17T05:20:12.105Z,952.41
2018-07-17T05:21:12.091Z,952.42
2018-07-17T05:22:12.093Z,952.42
2018-07-17T05:23:12.082Z,952.42
2018-07-17T05:24:12.075Z,952.44
2018-07-17T05:25:12.070Z,952.46
2018-07-17T05:26:12.065Z,952.48
2018-07-17T05:27:12.060Z,952.44
2018-07-17T05:28:12.055Z,952.42
2018-07-17T05:29:12.056Z,952.43
2018-07-17T05:30:12.048Z,952.39
2018-07-17T05:31:12.041Z,952.44
2018-07-17T05:32:12.033Z,952.43
2018-07-17T05:33:12.029Z,952.46
2018-07-17T05:34:12.024Z,952.44
2018-07-17T05:35:12.079Z,952.49
2018-07-17T05:36:12.014Z,952.5
2018-07-17T05:37:12.011Z,952.52
2018-07-17T05:38:12.004Z,952.55
2018-07-17T05:39:11.998Z,952.52
2018-07-17T05:40:11.994Z,952.51
2018-07-17T05:41:11.991Z,952.56
2018-07-17T05:42:11.984Z,952.55
2018-07-17T05:43:11.979Z,952.56
2018-07-17T05:44:11.976Z,952.55
2018-07-17T05:45:11.969Z,952.54
2018-07-17T05:46:11.967Z,952.52
2018-07-17T05:47:11.961Z,952.5
2018-07-17T05:48:11.956Z,952.5
2018-07-17T05:49:11.951Z,952.52
2018-07-17T05:50:11.947Z,952.53
2018-07-17T05:51:11.943Z,952.53
2018-07-17T05:52:11.938Z,952.54
2018-07-17T05:53:11.935Z,952.57
2018-07-17T05:54:11.929Z,952.51
2018-07-17T05:55:11.926Z,952.51
2018-07-17T05:56:11.923Z,952.5
2018-07-17T05:57:11.918Z,952.52
2018-07-17T05:58:11.914Z,952.55
2018-07-17T05:59:11.916Z,952.54
2018-07-17T06:00:11.906Z,952.56
2018-07-17T06:01:11.901Z,952.56
2018-07-17T06:02:11.897Z,952.56
2018-07-17T06:03:11.946Z,952.56
2018-07-17T06:04:11.891Z,952.58
2018-07-17T06:05:11.887Z,952.6
2018-07-17T06:06:11.881Z,952.61
2018-07-17T06:07:11.877Z,952.64
2018-07-17T06:08:11.873Z,952.59
2018-07-17T06:09:11.870Z,952.56
2018-07-17T06:10:11.904Z,952.61
2018-07-17T06:11:11.862Z,952.56
2018-07-17T06:12:11.859Z,952.6
2018-07-17T06:13:11.856Z,952.58
2018-07-17T06:14:11.852Z,952.58
2018-07-17T06:15:11.849Z,952.57
2018-07-17T06:16:11.847Z,952.56
2018-07-17T06:17:11.843Z,952.55
2018-07-17T06:18:11.838Z,952.57
2018-07-17T06:19:11.836Z,952.61
2018-07-17T06:20:11.833Z,952.54
2018-07-17T06:21:11.830Z,952.58
2018-07-17T06:22:11.896Z,952.56
2018-07-17T06:23:11.827Z,952.54
2018-07-17T06:24:11.823Z,952.55
2018-07-17T06:25:11.924Z,952.55
2018-07-17T06:26:11.812Z,952.54
2018-07-17T06:27:11.809Z,952.57
2018-07-17T06:28:11.807Z,952.56
2018-07-17T06:29:11.803Z,952.53
2018-07-17T06:30:11.798Z,952.5
2018-07-17T06:31:11.797Z,952.49
2018-07-17T06:32:11.795Z,952.5
2018-07-17T06:33:11.791Z,952.46
2018-07-17T06:34:11.790Z,952.5
2018-07-17T06:35:11.785Z,952.48
2018-07-17T06:36:11.784Z,952.48
2018-07-17T06:37:11.779Z,952.49
2018-07-17T06:38:11.776Z,952.5
2018-07-17T06:39:11.774Z,952.49
2018-07-17T06:40:11.803Z,952.48
2018-07-17T06:41:11.769Z,952.46
2018-07-17T06:42:11.766Z,952.46
2018-07-17T06:43:11.763Z,952.47
2018-07-17T06:44:11.760Z,952.46
2018-07-17T06:45:11.761Z,952.44
2018-07-17T06:46:11.755Z,952.44
2018-07-17T06:47:11.753Z,952.42
2018-07-17T06:48:11.750Z,952.41
2018-07-17T06:49:11.748Z,952.42
2018-07-17T06:50:11.810Z,952.46
2018-07-17T06:51:11.748Z,952.43
2018-07-17T06:52:11.744Z,952.46
2018-07-17T06:53:11.743Z,952.48
2018-07-17T06:54:11.742Z,952.45
2018-07-17T06:55:11.740Z,952.39
2018-07-17T06:56:11.741Z,952.44
2018-07-17T06:57:11.741Z,952.44
2018-07-17T06:58:11.892Z,952.42
2018-07-17T06:59:11.740Z,952.44
2018-07-17T07:00:11.741Z,952.41
2018-07-17T07:01:11.742Z,952.42
2018-07-17T07:02:11.742Z,952.44
2018-07-17T07:03:11.743Z,952.39
2018-07-17T07:04:11.745Z,952.35
2018-07-17T07:05:11.810Z,952.39
2018-07-17T07:06:11.747Z,952.39
2018-07-17T07:07:11.749Z,952.37
2018-07-17T07:08:11.752Z,952.36
2018-07-17T07:09:11.755Z,952.34
2018-07-17T07:10:11.767Z,952.35
2018-07-17T07:11:11.797Z,952.36
2018-07-17T07:12:11.765Z,952.33
2018-07-17T07:13:11.768Z,952.38
2018-07-17T07:14:11.773Z,952.39
2018-07-17T07:15:11.777Z,952.44
2018-07-17T07:16:11.781Z,952.46
2018-07-17T07:17:11.785Z,952.45
2018-07-17T07:18:11.789Z,952.45
2018-07-17T07:19:11.796Z,952.43
2018-07-17T07:20:11.801Z,952.43
2018-07-17T07:21:11.805Z,952.4
2018-07-17T07:22:11.812Z,952.47
2018-07-17T07:23:11.820Z,952.39
2018-07-17T07:24:11.825Z,952.44
2018-07-17T07:25:11.829Z,952.4
2018-07-17T07:26:11.838Z,952.4
2018-07-17T07:27:11.844Z,952.42
2018-07-17T07:28:11.849Z,952.39
2018-07-17T07:29:11.909Z,952.43
2018-07-17T07:30:11.863Z,952.36
2018-07-17T07:31:11.870Z,952.39
2018-07-17T07:32:11.877Z,952.35
2018-07-17T07:33:11.884Z,952.35
2018-07-17T07:34:11.891Z,952.38
2018-07-17T07:35:11.903Z,952.39
2018-07-17T07:36:11.906Z,952.41
2018-07-17T07:37:11.944Z,952.44
2018-07-17T07:38:11.921Z,952.45
2018-07-17T07:39:11.928Z,952.5
2018-07-17T07:40:11.936Z,952.53
2018-07-17T07:41:11.944Z,952.59
2018-07-17T07:42:11.951Z,952.6
2018-07-17T07:43:11.960Z,952.57
2018-07-17T07:44:11.969Z,952.59
2018-07-17T07:45:11.977Z,952.5
2018-07-17T07:46:11.984Z,952.42
2018-07-17T07:47:11.992Z,952.55
2018-07-17T07:48:12.000Z,952.49
2018-07-17T07:49:12.065Z,952.44
2018-07-17T07:50:12.016Z,952.45
2018-07-17T07:51:12.027Z,952.45
2018-07-17T07:52:12.031Z,952.44
2018-07-17T07:53:12.039Z,952.45
2018-07-17T07:54:12.047Z,952.45
2018-07-17T07:55:12.055Z,952.43
2018-07-17T07:56:12.064Z,952.43
2018-07-17T07:57:12.069Z,952.39
2018-07-17T07:58:12.081Z,952.41
2018-07-17T07:59:12.085Z,952.36
2018-07-17T08:00:12.093Z,952.39
2018-07-17T08:01:12.100Z,952.36
2018-07-17T08:02:12.107Z,952.38
2018-07-17T08:03:12.115Z,952.32
2018-07-17T08:04:12.122Z,952.34
2018-07-17T08:05:12.129Z,952.39
2018-07-17T08:06:12.137Z,952.36
2018-07-17T08:07:12.144Z,952.33
2018-07-17T08:08:12.151Z,952.32
2018-07-17T08:09:12.162Z,952.27
2018-07-17T08:10:12.165Z,952.3
2018-07-17T08:11:12.172Z,952.33
2018-07-17T08:12:12.221Z,952.36
2018-07-17T08:13:12.184Z,952.36
2018-07-17T08:14:12.191Z,952.32
2018-07-17T08:15:12.197Z,952.37
2018-07-17T08:16:12.208Z,952.38
2018-07-17T08:17:12.209Z,952.4
2018-07-17T08:18:12.218Z,952.4
2018-07-17T08:19:12.221Z,952.42
2018-07-17T08:20:12.226Z,952.39
2018-07-17T08:21:12.231Z,952.43
2018-07-17T08:22:12.238Z,952.36
2018-07-17T08:23:12.242Z,952.42
2018-07-17T08:24:12.268Z,952.39
2018-07-17T08:25:12.253Z,952.39
2018-07-17T08:26:12.257Z,952.39
2018-07-17T08:27:12.276Z,952.44
2018-07-17T08:28:12.272Z,952.46
2018-07-17T08:29:12.271Z,952.48
2018-07-17T08:30:12.276Z,952.5
2018-07-17T08:31:12.280Z,952.5
2018-07-17T08:32:12.286Z,952.53
2018-07-17T08:33:12.290Z,952.53
2018-07-17T08:34:12.292Z,952.49
2018-07-17T08:35:12.298Z,952.54
2018-07-17T08:36:12.301Z,952.56
2018-07-17T08:37:12.305Z,952.6
2018-07-17T08:38:12.310Z,952.55
2018-07-17T08:39:12.312Z,952.61
2018-07-17T08:40:12.317Z,952.61
2018-07-17T08:41:12.325Z,952.59
2018-07-17T08:42:12.323Z,952.57
2018-07-17T08:43:12.407Z,952.59
2018-07-17T08:44:12.335Z,952.58
2018-07-17T08:45:12.334Z,952.58
2018-07-17T08:46:12.339Z,952.55
2018-07-17T08:47:12.342Z,952.56
2018-07-17T08:48:12.345Z,952.55
2018-07-17T08:49:12.372Z,952.52
2018-07-17T08:50:12.359Z,952.48
2018-07-17T08:51:12.356Z,952.47
2018-07-17T08:52:12.358Z,952.51
2018-07-17T08:53:12.361Z,952.44
2018-07-17T08:54:12.364Z,952.48
2018-07-17T08:55:12.369Z,952.48
2018-07-17T08:56:12.370Z,952.47
2018-07-17T08:57:12.375Z,952.49
2018-07-17T08:58:12.377Z,952.49
2018-07-17T08:59:12.381Z,952.41
2018-07-17T09:00:12.382Z,952.43
2018-07-17T09:01:12.385Z,952.51
2018-07-17T09:02:12.389Z,952.51
2018-07-17T09:03:12.389Z,952.52
2018-07-17T09:04:12.392Z,952.53
2018-07-17T09:05:12.396Z,952.53
2018-07-17T09:06:12.400Z,952.54
2018-07-17T09:07:12.401Z,952.57
2018-07-17T09:08:12.404Z,952.59
2018-07-17T09:09:12.408Z,952.59
2018-07-17T09:10:12.411Z,952.6
2018-07-17T09:11:12.413Z,952.56
2018-07-17T09:12:12.436Z,952.6
2018-07-17T09:13:12.492Z,952.63
2018-07-17T09:14:12.421Z,952.63
2018-07-17T09:15:12.424Z,952.61
2018-07-17T09:16:12.430Z,952.58
2018-07-17T09:17:12.429Z,952.57
2018-07-17T09:18:12.432Z,952.61
2018-07-17T09:19:12.435Z,952.62
2018-07-17T09:20:12.438Z,952.57
2018-07-17T09:21:12.439Z,952.57
2018-07-17T09:22:12.445Z,952.58
2018-07-17T09:23:12.446Z,952.57
2018-07-17T09:24:12.449Z,952.5
2018-07-17T09:25:12.494Z,952.57
2018-07-17T09:26:12.454Z,952.61
2018-07-17T09:27:12.460Z,952.53
2018-07-17T09:28:12.485Z,952.54
2018-07-17T09:29:12.463Z,952.5
2018-07-17T09:30:12.466Z,952.48
2018-07-17T09:31:12.469Z,952.43
2018-07-17T09:32:12.480Z,952.48
2018-07-17T09:33:12.475Z,952.45
2018-07-17T09:34:12.481Z,952.46
2018-07-17T09:35:12.480Z,952.48
2018-07-17T09:36:12.482Z,952.48
2018-07-17T09:37:12.491Z,952.45
2018-07-17T09:38:12.489Z,952.47
2018-07-17T09:39:12.492Z,952.47
2018-07-17T09:40:12.495Z,952.51
2018-07-17T09:41:12.498Z,952.49
2018-07-17T09:42:12.501Z,952.53
2018-07-17T09:43:12.504Z,952.51
2018-07-17T09:44:12.534Z,952.5
2018-07-17T09:45:12.510Z,952.46
2018-07-17T09:46:12.514Z,952.49
2018-07-17T09:47:12.517Z,952.52
2018-07-17T09:48:12.520Z,952.5
2018-07-17T09:49:12.522Z,952.42
2018-07-17T09:50:12.525Z,952.45
2018-07-17T09:51:12.529Z,952.44
2018-07-17T09:52:12.531Z,952.46
2018-07-17T09:53:12.535Z,952.42
2018-07-17T09:54:12.581Z,952.45
2018-07-17T09:55:12.544Z,952.47
2018-07-17T09:56:12.543Z,952.41
2018-07-17T09:57:12.550Z,952.43
2018-07-17T09:58:12.548Z,952.4
2018-07-17T09:59:12.552Z,952.41
2018-07-17T10:00:12.556Z,952.46
2018-07-17T10:01:12.559Z,952.45
2018-07-17T10:02:12.561Z,952.46
2018-07-17T10:03:12.565Z,952.49
2018-07-17T10:04:12.568Z,952.54
2018-07-17T10:05:12.571Z,952.41
2018-07-17T10:06:12.576Z,952.47
2018-07-17T10:07:12.578Z,952.47
2018-07-17T10:08:12.581Z,952.41
2018-07-17T10:09:12.584Z,952.49
2018-07-17T10:10:12.587Z,952.47
2018-07-17T10:11:12.596Z,952.37
2018-07-17T10:12:12.592Z,952.42
2018-07-17T10:13:12.596Z,952.43
2018-07-17T10:14:12.599Z,952.46
2018-07-17T10:15:12.608Z,952.47
2018-07-17T10:16:12.606Z,952.52
2018-07-17T10:17:12.610Z,952.48
2018-07-17T10:18:12.613Z,952.47
2018-07-17T10:19:12.619Z,952.46
2018-07-17T10:20:12.651Z,952.48
2018-07-17T10:21:12.624Z,952.46
2018-07-17T10:22:12.631Z,952.49
2018-07-17T10:23:12.631Z,952.49
2018-07-17T10:24:12.633Z,952.52
2018-07-17T10:25:12.639Z,952.53
2018-07-17T10:26:12.668Z,952.54
2018-07-17T10:27:12.648Z,952.46
2018-07-17T10:28:12.649Z,952.46
2018-07-17T10:29:12.662Z,952.46
2018-07-17T10:30:12.656Z,952.42
2018-07-17T10:31:12.657Z,952.38
2018-07-17T10:32:12.772Z,952.4
2018-07-17T10:33:12.666Z,952.46
2018-07-17T10:34:12.669Z,952.45
2018-07-17T10:35:12.673Z,952.43
2018-07-17T10:36:12.677Z,952.43
2018-07-17T10:37:12.681Z,952.48
2018-07-17T10:38:12.684Z,952.42
2018-07-17T10:39:12.688Z,952.43
2018-07-17T10:40:12.692Z,952.36
2018-07-17T10:41:12.695Z,952.33
2018-07-17T10:42:12.699Z,952.36
2018-07-17T10:43:12.709Z,952.38
2018-07-17T10:44:12.707Z,952.38
2018-07-17T10:45:12.709Z,952.41
2018-07-17T10:46:12.714Z,952.4
2018-07-17T10:47:12.717Z,952.48
2018-07-17T10:48:12.721Z,952.45
2018-07-17T10:49:12.724Z,952.37
2018-07-17T10:50:12.728Z,952.38
2018-07-17T10:51:12.732Z,952.35
2018-07-17T10:52:12.735Z,952.32
2018-07-17T10:53:12.741Z,952.36
2018-07-17T10:54:12.743Z,952.38
2018-07-17T10:55:12.747Z,952.32
2018-07-17T10:56:12.750Z,952.34
2018-07-17T10:57:12.756Z,952.35
2018-07-17T10:58:12.758Z,952.32
2018-07-17T10:59:12.763Z,952.3
2018-07-17T11:00:12.766Z,952.31
2018-07-17T11:01:12.770Z,952.35
2018-07-17T11:02:12.776Z,952.39
2018-07-17T11:03:12.779Z,952.3
2018-07-17T11:04:12.782Z,952.26
2018-07-17T11:05:12.786Z,952.31
2018-07-17T11:06:12.790Z,952.28
2018-07-17T11:07:12.795Z,952.31
2018-07-17T11:08:12.807Z,952.33
2018-07-17T11:09:12.809Z,952.29
2018-07-17T11:10:12.807Z,952.22
2018-07-17T11:11:12.810Z,952.24
2018-07-17T11:12:12.815Z,952.27
2018-07-17T11:13:12.820Z,952.26
2018-07-17T11:14:12.822Z,952.26
2018-07-17T11:15:12.827Z,952.26
2018-07-17T11:16:12.831Z,952.25
2018-07-17T11:17:12.837Z,952.21
2018-07-17T11:18:12.839Z,952.19
2018-07-17T11:19:12.842Z,952.17
2018-07-17T11:20:12.847Z,952.2
2018-07-17T11:21:12.852Z,952.18
2018-07-17T11:22:12.857Z,952.2
2018-07-17T11:23:12.860Z,952.21
2018-07-17T11:24:12.863Z,952.2
2018-07-17T11:25:12.867Z,952.13
2018-07-17T11:26:12.871Z,952.11
2018-07-17T11:27:12.875Z,952.09
2018-07-17T11:28:12.880Z,952.06
2018-07-17T11:29:12.882Z,952.07
2018-07-17T11:30:12.887Z,952.08
2018-07-17T11:31:12.891Z,952.06
2018-07-17T11:32:12.896Z,952.12
2018-07-17T11:33:12.898Z,952.05
2018-07-17T11:34:12.902Z,952.07
2018-07-17T11:35:12.905Z,952.03
2018-07-17T11:36:12.910Z,952.05
2018-07-17T11:37:12.914Z,952.09
2018-07-17T11:38:12.926Z,952.03
2018-07-17T11:39:12.923Z,951.98
2018-07-17T11:40:12.926Z,951.99
2018-07-17T11:41:12.929Z,951.96
2018-07-17T11:42:12.933Z,951.98
2018-07-17T11:43:12.985Z,952
2018-07-17T11:44:12.945Z,951.95
2018-07-17T11:45:12.950Z,951.93
2018-07-17T11:46:12.950Z,951.88
2018-07-17T11:47:12.953Z,951.88
2018-07-17T11:48:12.957Z,951.9
2018-07-17T11:49:12.961Z,951.91
2018-07-17T11:50:12.965Z,951.95
2018-07-17T11:51:12.972Z,951.9
2018-07-17T11:52:12.971Z,951.89
2018-07-17T11:53:13.003Z,951.83
2018-07-17T11:54:12.980Z,951.82
2018-07-17T11:55:12.985Z,951.87
2018-07-17T11:56:12.987Z,951.79
2018-07-17T11:57:12.991Z,951.84
2018-07-17T11:58:12.994Z,951.82
2018-07-17T11:59:13.058Z,951.78
2018-07-17T12:00:13.003Z,951.79
2018-07-17T12:01:13.007Z,951.75
2018-07-17T12:02:13.010Z,951.77
2018-07-17T12:03:13.014Z,951.79
2018-07-17T12:04:13.019Z,951.76
2018-07-17T12:05:13.023Z,951.74
2018-07-17T12:06:13.029Z,951.69
2018-07-17T12:07:13.031Z,951.72
2018-07-17T12:08:13.033Z,951.68
2018-07-17T12:09:13.037Z,951.65
2018-07-17T12:10:13.041Z,951.67
2018-07-17T12:11:13.044Z,951.68
2018-07-17T12:12:13.049Z,951.68
2018-07-17T12:13:13.058Z,951.67
2018-07-17T12:14:13.056Z,951.76
2018-07-17T12:15:13.060Z,951.73
2018-07-17T12:16:13.062Z,951.82
2018-07-17T12:17:13.067Z,951.74
2018-07-17T12:18:13.072Z,951.65
2018-07-17T12:19:13.075Z,951.75
2018-07-17T12:20:13.136Z,951.72
2018-07-17T12:21:13.082Z,951.67
2018-07-17T12:22:13.088Z,951.63
2018-07-17T12:23:13.091Z,951.59
2018-07-17T12:24:13.094Z,951.6
2018-07-17T12:25:13.101Z,951.6
2018-07-17T12:26:13.102Z,951.56
2018-07-17T12:27:13.106Z,951.56
2018-07-17T12:28:13.110Z,951.54
2018-07-17T12:29:13.115Z,951.55
2018-07-17T12:30:13.119Z,951.53